Terminal Aerodrome Forecast
Issued by NWS

Home | Current Version | Previous Version | Text Only | Print | Product List | Glossary On
Versions: 1 2 3 4 5 6 7 8 9 10 11 12 13 14 15 16 17 18 19 20 21 22 23 24 25
000
FTUS43 KJKL 010901 AAA
TAFSME
TAF AMD
KSME 010901Z 0109/0206 VRB03KT 5SM BR SCT025
     FM011400 VRB06KT P6SM SCT005 SCT250
     FM011700 24007KT P6SM VCTS BKN030CB
     FM020200 VRB03KT 2SM -SHRA BR OVC020=

USA.gov is the U.S. government's official web portal to all federal, state and local government web resources and services.